Time;durP1;ratioP1;P1;durP2;ratioP2;P2;SDS_P1;SDS_P2;PMS_P1;PMS_P2;Temp;Humidity;BMP_temperature;BMP_pressure;BME280_temperature;BME280_humidity;BME280_pressure;Samples;Min_cycle;Max_cycle;Signal;HPM_P1;HPM_P2
2021/08/24 00:00:08;0.00;0.00;0.62;0.00;0.00;0.62;2.40;1.57;;;26.20;32.30;;;;;;2254100;61;20399;-60
2021/08/24 00:02:58;0.00;0.00;0.62;0.00;0.00;0.62;2.40;1.73;;;26.20;32.30;;;;;;2253515;61;20368;-59
2021/08/24 00:05:46;0.00;0.00;0.62;0.00;0.00;0.62;2.10;1.60;;;26.20;32.30;;;;;;2253737;61;20359;-61
2021/08/24 00:08:35;0.00;0.00;0.62;0.00;0.00;0.62;2.47;1.57;;;26.20;32.30;;;;;;2253876;61;20742;-58
2021/08/24 00:11:19;0.00;0.00;0.62;0.00;0.00;0.62;2.63;1.83;;;26.20;32.30;;;;;;2253601;61;20387;-62
2021/08/24 00:14:06;0.00;0.00;0.62;0.00;0.00;0.62;2.37;1.60;;;26.20;32.30;;;;;;2253873;61;20362;-59
2021/08/24 00:16:51;0.00;0.00;0.62;0.00;0.00;0.62;2.60;1.70;;;26.20;32.30;;;;;;2253200;61;20578;-61
2021/08/24 00:19:36;0.00;0.00;0.62;0.00;0.00;0.62;2.30;1.80;;;26.20;32.30;;;;;;2253650;61;20626;-60
2021/08/24 00:22:20;0.00;0.00;0.62;0.00;0.00;0.62;3.40;2.00;;;26.20;32.30;;;;;;2254073;61;20402;-60
2021/08/24 00:25:10;0.00;0.00;0.62;0.00;0.00;0.62;1.90;1.43;;;26.20;32.30;;;;;;2253395;61;20360;-60
2021/08/24 00:27:55;0.00;0.00;0.62;0.00;0.00;0.62;2.27;1.80;;;26.20;32.30;;;;;;2253436;61;20395;-61
2021/08/24 00:30:39;0.00;0.00;0.62;0.00;0.00;0.62;3.03;1.97;;;26.20;32.30;;;;;;2253941;61;20430;-60
2021/08/24 00:33:25;0.00;0.00;0.62;0.00;0.00;0.62;1.77;1.50;;;26.20;32.30;;;;;;2253520;61;20403;-60
2021/08/24 00:36:12;0.00;0.00;0.62;0.00;0.00;0.62;2.00;1.43;;;26.20;32.30;;;;;;2253815;61;20380;-61
2021/08/24 00:38:58;0.00;0.00;0.62;0.00;0.00;0.62;2.10;1.70;;;26.10;32.20;;;;;;2253315;61;20440;-57
2021/08/24 00:41:43;0.00;0.00;0.62;0.00;0.00;0.62;2.20;1.53;;;26.20;32.30;;;;;;2253458;61;20352;-56
2021/08/24 00:44:28;0.00;0.00;0.62;0.00;0.00;0.62;2.53;2.00;;;26.10;32.20;;;;;;2253949;61;20380;-58
2021/08/24 00:47:15;0.00;0.00;0.62;0.00;0.00;0.62;1.83;1.60;;;26.20;32.30;;;;;;2253212;61;20422;-61
2021/08/24 00:50:14;0.00;0.00;0.62;0.00;0.00;0.62;2.30;1.63;;;26.20;32.30;;;;;;2253341;61;20763;-61
2021/08/24 00:53:02;0.00;0.00;0.62;0.00;0.00;0.62;1.97;1.50;;;26.10;32.20;;;;;;2253833;61;20458;-58
2021/08/24 00:55:47;0.00;0.00;0.62;0.00;0.00;0.62;2.03;1.50;;;26.20;32.30;;;;;;2253380;61;20873;-59
2021/08/24 00:58:33;0.00;0.00;0.62;0.00;0.00;0.62;2.23;1.63;;;26.10;32.20;;;;;;2253884;61;20795;-60
2021/08/24 01:01:18;0.00;0.00;0.62;0.00;0.00;0.62;2.30;1.80;;;26.10;32.20;;;;;;2253174;61;20461;-61
2021/08/24 01:04:03;0.00;0.00;0.62;0.00;0.00;0.62;2.20;1.60;;;26.10;32.20;;;;;;2253579;61;20632;-59
2021/08/24 01:06:54;0.00;0.00;0.62;0.00;0.00;0.62;2.80;2.20;;;26.10;32.90;;;;;;2253757;61;20371;-60
2021/08/24 01:09:47;0.00;0.00;0.62;0.00;0.00;0.62;3.63;1.57;;;26.10;32.20;;;;;;2252959;61;20391;-59
2021/08/24 01:12:40;0.00;0.00;0.62;0.00;0.00;0.62;2.07;1.50;;;26.10;32.20;;;;;;2253578;61;20375;-59
2021/08/24 01:15:35;0.00;0.00;0.62;0.00;0.00;0.62;2.53;2.00;;;26.10;32.20;;;;;;2253683;61;20375;-60
2021/08/24 01:18:28;0.00;0.00;0.62;0.00;0.00;0.62;2.10;1.60;;;26.10;32.20;;;;;;2253236;61;20590;-61
2021/08/24 01:21:56;0.00;0.00;0.62;0.00;0.00;0.62;2.30;1.80;;;26.10;32.20;;;;;;2253849;61;20358;-61
2021/08/24 01:24:49;0.00;0.00;0.62;0.00;0.00;0.62;2.07;1.60;;;26.00;32.10;;;;;;2253178;61;20387;-59
2021/08/24 01:27:41;0.00;0.00;0.62;0.00;0.00;0.62;3.17;1.47;;;26.10;32.20;;;;;;2253706;61;20731;-60
2021/08/24 01:30:53;0.00;0.00;0.62;0.00;0.00;0.62;1.50;1.20;;;26.10;32.20;;;;;;2253349;61;20387;-60
2021/08/24 01:33:49;0.00;0.00;0.62;0.00;0.00;0.62;2.30;1.40;;;26.10;32.20;;;;;;2252991;61;20585;-59
2021/08/24 01:36:40;0.00;0.00;0.62;0.00;0.00;0.62;2.43;1.63;;;26.10;32.20;;;;;;2253694;61;20619;-60
2021/08/24 01:39:29;0.00;0.00;0.62;0.00;0.00;0.62;2.20;1.40;;;26.10;32.20;;;;;;2253150;61;20406;-59
2021/08/24 01:42:18;0.00;0.00;0.62;0.00;0.00;0.62;2.10;1.60;;;26.00;32.10;;;;;;2253761;61;20384;-58
2021/08/24 01:45:14;0.00;0.00;0.62;0.00;0.00;0.62;2.87;1.80;;;26.10;32.20;;;;;;2253571;61;20419;-58
2021/08/24 01:48:04;0.00;0.00;0.62;0.00;0.00;0.62;1.60;1.27;;;26.00;32.10;;;;;;2253051;61;20786;-60
2021/08/24 01:50:55;0.00;0.00;0.62;0.00;0.00;0.62;3.10;1.43;;;26.00;32.10;;;;;;2253127;61;20700;-60
2021/08/24 01:53:47;0.00;0.00;0.62;0.00;0.00;0.62;2.90;1.90;;;26.00;32.10;;;;;;2253046;61;20608;-61
2021/08/24 01:56:38;0.00;0.00;0.62;0.00;0.00;0.62;1.73;1.40;;;26.00;32.10;;;;;;2252934;61;20406;-60
2021/08/24 01:59:27;0.00;0.00;0.62;0.00;0.00;0.62;1.73;1.53;;;26.00;32.10;;;;;;2253612;61;20402;-59
2021/08/24 02:02:16;0.00;0.00;0.62;0.00;0.00;0.62;2.20;1.47;;;26.00;32.10;;;;;;2253151;61;20412;-59
2021/08/24 02:05:09;0.00;0.00;0.62;0.00;0.00;0.62;2.00;1.73;;;26.00;32.10;;;;;;2253768;61;20367;-58
2021/08/24 02:07:59;0.00;0.00;0.62;0.00;0.00;0.62;2.40;1.60;;;26.00;32.10;;;;;;2253136;61;20379;-61
2021/08/24 02:10:47;0.00;0.00;0.62;0.00;0.00;0.62;1.93;1.70;;;26.00;32.10;;;;;;2252880;61;20442;-61
2021/08/24 02:13:38;0.00;0.00;0.62;0.00;0.00;0.62;3.03;1.77;;;26.00;32.10;;;;;;2253473;61;20588;-60
2021/08/24 02:16:28;0.00;0.00;0.62;0.00;0.00;0.62;2.93;1.50;;;26.00;32.10;;;;;;2253008;61;20383;-60
2021/08/24 02:19:17;0.00;0.00;0.62;0.00;0.00;0.62;2.83;1.50;;;26.00;32.10;;;;;;2253360;61;20415;-60
2021/08/24 02:22:11;0.00;0.00;0.62;0.00;0.00;0.62;2.00;1.30;;;26.00;32.10;;;;;;2253507;61;20368;-59
2021/08/24 02:25:02;0.00;0.00;0.62;0.00;0.00;0.62;2.23;1.70;;;26.00;32.10;;;;;;2253106;61;20387;-57
2021/08/24 02:27:55;0.00;0.00;0.62;0.00;0.00;0.62;1.80;1.60;;;26.00;32.10;;;;;;2253425;61;20744;-59
2021/08/24 02:30:54;0.00;0.00;0.62;0.00;0.00;0.62;2.90;1.77;;;26.00;32.10;;;;;;2252922;61;20400;-59
2021/08/24 02:33:44;0.00;0.00;0.62;0.00;0.00;0.62;2.53;1.70;;;26.00;32.10;;;;;;2253082;61;20731;-60
2021/08/24 02:36:30;0.00;0.00;0.62;0.00;0.00;0.62;2.00;1.50;;;25.90;32.00;;;;;;2253496;61;20590;-62
2021/08/24 02:39:24;0.00;0.00;0.62;0.00;0.00;0.62;2.20;1.70;;;25.90;32.10;;;;;;2253102;61;20594;-61
2021/08/24 02:42:17;0.00;0.00;0.62;0.00;0.00;0.62;4.40;2.07;;;25.90;32.10;;;;;;2253578;61;20352;-60
2021/08/24 02:45:09;0.00;0.00;0.62;0.00;0.00;0.62;2.10;1.73;;;25.90;32.00;;;;;;2253269;61;20360;-60
2021/08/24 02:47:55;0.00;0.00;0.62;0.00;0.00;0.62;2.13;1.90;;;25.90;32.10;;;;;;2252975;61;20383;-61
2021/08/24 02:50:42;0.00;0.00;0.62;0.00;0.00;0.62;2.43;1.90;;;25.90;32.00;;;;;;2253489;61;20407;-62
2021/08/24 02:53:27;0.00;0.00;0.62;0.00;0.00;0.62;2.17;1.67;;;25.90;32.00;;;;;;2252804;61;20444;-61
2021/08/24 02:56:12;0.00;0.00;0.62;0.00;0.00;0.62;1.90;1.37;;;25.90;32.00;;;;;;2253071;61;20719;-61
2021/08/24 02:58:57;0.00;0.00;0.62;0.00;0.00;0.62;2.77;2.30;;;25.90;32.00;;;;;;2253558;61;20779;-60
2021/08/24 03:01:43;0.00;0.00;0.62;0.00;0.00;0.62;2.27;1.40;;;25.90;32.00;;;;;;2252613;61;20351;-61
2021/08/24 03:04:29;0.00;0.00;0.62;0.00;0.00;0.62;1.73;1.50;;;25.80;31.90;;;;;;2253510;61;20379;-59
2021/08/24 03:07:17;0.00;0.00;0.62;0.00;0.00;0.62;2.27;1.80;;;25.90;32.00;;;;;;2253115;61;20399;-59
2021/08/24 03:10:07;0.00;0.00;0.62;0.00;0.00;0.62;2.40;1.63;;;25.80;31.90;;;;;;2252868;61;20792;-59
2021/08/24 03:13:06;0.00;0.00;0.62;0.00;0.00;0.62;3.00;1.60;;;25.80;32.00;;;;;;2253510;61;20360;-59
2021/08/24 03:15:59;0.00;0.00;0.62;0.00;0.00;0.62;2.23;1.70;;;25.80;32.00;;;;;;2252805;61;20360;-61
2021/08/24 03:18:49;0.00;0.00;0.62;0.00;0.00;0.62;1.70;1.40;;;25.80;32.00;;;;;;2253203;61;20391;-59
2021/08/24 03:21:36;0.00;0.00;0.62;0.00;0.00;0.62;1.53;1.30;;;25.80;32.00;;;;;;2253185;61;20391;-61
2021/08/24 03:24:21;0.00;0.00;0.62;0.00;0.00;0.62;2.23;1.57;;;25.80;32.00;;;;;;2252703;61;20402;-60
2021/08/24 03:27:08;0.00;0.00;0.62;0.00;0.00;0.62;1.70;1.50;;;25.80;32.00;;;;;;2253371;61;20463;-60
2021/08/24 03:29:58;0.00;0.00;0.62;0.00;0.00;0.62;1.90;1.70;;;25.80;32.00;;;;;;2252707;61;20593;-60
2021/08/24 03:32:43;0.00;0.00;0.62;0.00;0.00;0.62;2.27;1.50;;;25.80;32.00;;;;;;2252941;61;20461;-60
2021/08/24 03:35:30;0.00;0.00;0.62;0.00;0.00;0.62;2.40;2.03;;;25.80;32.00;;;;;;2253365;61;20643;-59
2021/08/24 03:38:14;0.00;0.00;0.62;0.00;0.00;0.62;3.03;2.30;;;25.80;32.00;;;;;;2252676;61;20511;-61
2021/08/24 03:41:02;0.00;0.00;0.62;0.00;0.00;0.62;2.23;1.80;;;25.80;32.00;;;;;;2253239;61;20356;-60
2021/08/24 03:43:46;0.00;0.00;0.62;0.00;0.00;0.62;2.60;1.77;;;25.80;32.00;;;;;;2253091;61;20360;-59
2021/08/24 03:46:31;0.00;0.00;0.62;0.00;0.00;0.62;3.00;1.60;;;25.80;32.00;;;;;;2252670;61;20359;-60
2021/08/24 03:49:15;0.00;0.00;0.62;0.00;0.00;0.62;3.80;2.10;;;25.70;31.90;;;;;;2253333;61;20719;-59
2021/08/24 03:52:01;0.00;0.00;0.62;0.00;0.00;0.62;2.83;1.83;;;25.70;32.00;;;;;;2252630;61;20500;-60
2021/08/24 03:54:46;0.00;0.00;0.62;0.00;0.00;0.62;2.60;1.80;;;25.70;32.00;;;;;;2252980;61;20375;-59
2021/08/24 03:57:30;0.00;0.00;0.62;0.00;0.00;0.62;2.47;1.83;;;25.70;32.00;;;;;;2253261;61;20379;-60
2021/08/24 04:00:16;0.00;0.00;0.62;0.00;0.00;0.62;2.00;1.80;;;25.70;32.00;;;;;;2252689;61;20771;-63
2021/08/24 04:03:01;0.00;0.00;0.62;0.00;0.00;0.62;1.80;1.40;;;25.70;32.00;;;;;;2253103;61;20359;-61
2021/08/24 04:05:45;0.00;0.00;0.62;0.00;0.00;0.62;4.30;1.93;;;25.70;32.00;;;;;;2252960;61;20723;-60
2021/08/24 04:08:31;0.00;0.00;0.62;0.00;0.00;0.62;2.00;1.50;;;25.70;32.00;;;;;;2252656;61;20377;-60
2021/08/24 04:11:16;0.00;0.00;0.62;0.00;0.00;0.62;2.13;1.60;;;25.70;32.10;;;;;;2253283;61;20367;-60
2021/08/24 04:14:01;0.00;0.00;0.62;0.00;0.00;0.62;3.70;1.93;;;25.70;32.00;;;;;;2253090;61;20615;-57
2021/08/24 04:16:46;0.00;0.00;0.62;0.00;0.00;0.62;2.13;1.30;;;25.70;32.00;;;;;;2253832;61;20399;-60
2021/08/24 04:19:31;0.00;0.00;0.62;0.00;0.00;0.62;2.30;1.57;;;25.70;32.00;;;;;;2253926;61;20575;-61
2021/08/24 04:22:19;0.00;0.00;0.62;0.00;0.00;0.62;1.97;1.40;;;25.70;32.00;;;;;;2253372;61;20360;-62
2021/08/24 04:25:06;0.00;0.00;0.62;0.00;0.00;0.62;1.93;1.67;;;25.70;32.00;;;;;;2253727;61;20449;-60
2021/08/24 04:27:51;0.00;0.00;0.62;0.00;0.00;0.62;1.73;1.63;;;25.70;32.00;;;;;;2253644;61;20414;-61
2021/08/24 04:30:36;0.00;0.00;0.62;0.00;0.00;0.62;2.47;1.90;;;25.60;32.00;;;;;;2253269;61;20383;-60
2021/08/24 04:33:24;0.00;0.00;0.62;0.00;0.00;0.62;3.20;1.73;;;25.60;32.00;;;;;;2253750;61;20357;-60
2021/08/24 04:36:09;0.00;0.00;0.62;0.00;0.00;0.62;2.53;1.77;;;25.60;32.00;;;;;;2253437;61;20362;-59
2021/08/24 04:38:54;0.00;0.00;0.62;0.00;0.00;0.62;2.60;1.80;;;25.60;32.00;;;;;;2253595;61;20383;-59
2021/08/24 04:41:40;0.00;0.00;0.62;0.00;0.00;0.62;2.43;1.73;;;25.60;32.00;;;;;;2253747;61;20359;-60
2021/08/24 04:44:24;0.00;0.00;0.62;0.00;0.00;0.62;2.10;1.80;;;25.60;32.10;;;;;;2253282;61;20368;-59
2021/08/24 04:47:09;0.00;0.00;0.62;0.00;0.00;0.62;5.10;1.73;;;25.60;32.70;;;;;;2253438;61;20395;-63
2021/08/24 04:49:53;0.00;0.00;0.62;0.00;0.00;0.62;2.27;2.07;;;25.60;32.00;;;;;;2253696;61;20747;-61
2021/08/24 04:52:38;0.00;0.00;0.62;0.00;0.00;0.62;5.70;1.83;;;25.50;31.90;;;;;;2253279;61;20356;-61
2021/08/24 04:55:22;0.00;0.00;0.62;0.00;0.00;0.62;2.20;2.00;;;25.60;32.00;;;;;;2253712;61;20368;-60
2021/08/24 04:58:08;0.00;0.00;0.62;0.00;0.00;0.62;2.53;1.93;;;25.60;32.00;;;;;;2253371;61;20375;-60
2021/08/24 05:00:53;0.00;0.00;0.62;0.00;0.00;0.62;2.13;1.63;;;25.50;31.90;;;;;;2253491;61;20479;-59
2021/08/24 05:03:37;0.00;0.00;0.62;0.00;0.00;0.62;2.33;1.80;;;25.50;31.90;;;;;;2253742;61;20442;-59
2021/08/24 05:06:22;0.00;0.00;0.62;0.00;0.00;0.62;2.63;1.87;;;25.50;31.90;;;;;;2253130;61;20388;-60
2021/08/24 05:09:06;0.00;0.00;0.62;0.00;0.00;0.62;2.30;1.57;;;25.50;32.00;;;;;;2253382;61;20383;-61
2021/08/24 05:11:51;0.00;0.00;0.62;0.00;0.00;0.62;3.30;1.87;;;25.50;32.00;;;;;;2253653;61;20770;-64
2021/08/24 05:14:37;0.00;0.00;0.62;0.00;0.00;0.62;3.13;1.70;;;25.50;31.90;;;;;;2253202;61;20359;-62
2021/08/24 05:17:21;0.00;0.00;0.62;0.00;0.00;0.62;2.27;1.67;;;25.50;32.00;;;;;;2253635;61;20445;-64
2021/08/24 05:20:08;0.00;0.00;0.62;0.00;0.00;0.62;2.77;1.80;;;25.50;32.00;;;;;;2253533;61;20379;-62
2021/08/24 05:22:52;0.00;0.00;0.62;0.00;0.00;0.62;2.97;2.07;;;25.50;32.00;;;;;;2253201;61;20372;-63
2021/08/24 05:25:38;0.00;0.00;0.62;0.00;0.00;0.62;3.00;2.30;;;25.50;32.10;;;;;;2253467;61;20376;-62
2021/08/24 05:28:23;0.00;0.00;0.62;0.00;0.00;0.62;2.70;1.67;;;25.50;32.20;;;;;;2253119;61;20387;-62
2021/08/24 05:31:09;0.00;0.00;0.62;0.00;0.00;0.62;2.27;1.77;;;25.50;32.10;;;;;;2253278;61;20515;-62
2021/08/24 05:33:53;0.00;0.00;0.62;0.00;0.00;0.62;3.20;2.10;;;25.50;32.20;;;;;;2253634;61;20419;-61
2021/08/24 05:36:38;0.00;0.00;0.62;0.00;0.00;0.62;2.30;1.60;;;25.50;32.20;;;;;;2252963;61;20356;-65
2021/08/24 05:39:23;0.00;0.00;0.62;0.00;0.00;0.62;2.10;1.50;;;25.50;32.20;;;;;;2253568;61;20399;-64
2021/08/24 05:42:08;0.00;0.00;0.62;0.00;0.00;0.62;3.07;1.93;;;25.50;32.20;;;;;;2253416;61;20387;-61
2021/08/24 05:44:53;0.00;0.00;0.62;0.00;0.00;0.62;3.10;1.90;;;25.60;32.20;;;;;;2253101;61;20585;-61
2021/08/24 05:47:39;0.00;0.00;0.62;0.00;0.00;0.62;3.00;2.10;;;25.50;32.20;;;;;;2253599;61;20648;-63
2021/08/24 05:50:26;0.00;0.00;0.62;0.00;0.00;0.62;2.40;1.87;;;25.50;32.10;;;;;;2252826;61;20751;-63
2021/08/24 05:53:10;0.00;0.00;0.62;0.00;0.00;0.62;2.93;2.10;;;25.50;32.10;;;;;;2253246;61;20356;-62
2021/08/24 05:55:55;0.00;0.00;0.62;0.00;0.00;0.62;2.60;1.70;;;25.60;32.20;;;;;;2253541;61;20367;-61
2021/08/24 05:58:40;0.00;0.00;0.62;0.00;0.00;0.62;2.90;2.30;;;25.50;32.20;;;;;;2252957;61;20456;-62
2021/08/24 06:01:27;0.00;0.00;0.62;0.00;0.00;0.62;2.70;1.70;;;25.60;32.20;;;;;;2253421;61;20367;-63
2021/08/24 06:04:13;0.00;0.00;0.62;0.00;0.00;0.62;3.40;1.83;;;25.60;32.20;;;;;;2253347;61;20368;-61
2021/08/24 06:06:58;0.00;0.00;0.62;0.00;0.00;0.62;2.50;2.13;;;25.60;32.20;;;;;;2252451;61;20566;-63
2021/08/24 06:09:43;0.00;0.00;0.62;0.00;0.00;0.62;2.00;1.50;;;25.60;32.20;;;;;;2253637;61;20364;-59
2021/08/24 06:12:28;0.00;0.00;0.62;0.00;0.00;0.62;2.47;1.67;;;25.60;32.20;;;;;;2252978;61;20748;-61
2021/08/24 06:15:14;0.00;0.00;0.62;0.00;0.00;0.62;3.47;2.00;;;25.60;32.10;;;;;;2253426;61;20355;-63
2021/08/24 06:17:59;0.00;0.00;0.62;0.00;0.00;0.62;2.50;1.80;;;25.60;32.10;;;;;;2253494;61;20387;-61
2021/08/24 06:20:44;0.00;0.00;0.62;0.00;0.00;0.62;2.50;2.00;;;25.60;32.10;;;;;;2252984;61;20716;-63
2021/08/24 06:23:29;0.00;0.00;0.62;0.00;0.00;0.62;2.90;1.87;;;25.60;32.10;;;;;;2253355;61;20496;-60
2021/08/24 06:26:14;0.00;0.00;0.62;0.00;0.00;0.62;2.80;1.80;;;25.60;32.10;;;;;;2253398;61;20387;-62
2021/08/24 06:28:58;0.00;0.00;0.62;0.00;0.00;0.62;2.63;1.97;;;25.60;32.10;;;;;;2253139;61;20735;-64
2021/08/24 06:31:51;0.00;0.00;0.62;0.00;0.00;0.62;2.57;1.87;;;25.60;32.00;;;;;;2253557;61;20394;-66
2021/08/24 06:34:35;0.00;0.00;0.62;0.00;0.00;0.62;2.40;1.80;;;25.60;31.90;;;;;;2252971;61;20676;-62
2021/08/24 06:37:21;0.00;0.00;0.62;0.00;0.00;0.62;3.27;2.20;;;25.60;32.00;;;;;;2253220;61;20707;-65
2021/08/24 06:40:08;0.00;0.00;0.62;0.00;0.00;0.62;2.50;1.50;;;25.60;32.10;;;;;;2253584;61;20396;-64
2021/08/24 06:42:53;0.00;0.00;0.62;0.00;0.00;0.62;2.70;2.13;;;25.60;32.10;;;;;;2253105;61;20407;-62
2021/08/24 06:45:39;0.00;0.00;0.62;0.00;0.00;0.62;4.43;1.83;;;25.50;32.20;;;;;;2253400;61;20375;-64
2021/08/24 06:48:24;0.00;0.00;0.62;0.00;0.00;0.62;2.80;2.00;;;25.50;32.10;;;;;;2253415;61;20404;-62
2021/08/24 06:51:09;0.00;0.00;0.62;0.00;0.00;0.62;2.40;1.80;;;25.60;32.20;;;;;;2252884;61;20392;-63
2021/08/24 06:53:56;0.00;0.00;0.62;0.00;0.00;0.62;3.17;2.10;;;25.60;32.20;;;;;;2253432;61;20375;-65
2021/08/24 06:56:40;0.00;0.00;0.62;0.00;0.00;0.62;4.20;1.97;;;25.60;32.20;;;;;;2253045;61;20597;-60
2021/08/24 06:59:25;0.00;0.00;0.62;0.00;0.00;0.62;7.20;2.20;;;25.60;32.10;;;;;;2253232;61;20360;-61
2021/08/24 07:02:10;0.00;0.00;0.62;0.00;0.00;0.62;3.30;2.07;;;25.60;32.10;;;;;;2253434;61;20428;-63
2021/08/24 07:04:36;0.00;0.00;0.62;0.00;0.00;0.62;4.80;2.00;;;25.60;32.00;;;;;;2252884;61;20361;-61
2021/08/24 07:07:02;0.00;0.00;0.62;0.00;0.00;0.62;3.80;1.60;;;25.60;32.10;;;;;;2253143;61;20367;-63
2021/08/24 07:09:49;0.00;0.00;0.62;0.00;0.00;0.62;4.40;2.27;;;25.60;32.10;;;;;;2253380;61;20382;-62
2021/08/24 07:12:34;0.00;0.00;0.62;0.00;0.00;0.62;2.30;1.70;;;25.50;32.10;;;;;;2252846;61;20355;-61
2021/08/24 07:15:22;0.00;0.00;0.62;0.00;0.00;0.62;7.53;2.07;;;25.60;32.30;;;;;;2252763;61;20383;-62
2021/08/24 07:18:07;0.00;0.00;0.62;0.00;0.00;0.62;8.23;1.77;;;25.60;32.30;;;;;;2253023;61;20378;-61
2021/08/24 07:20:53;0.00;0.00;0.62;0.00;0.00;0.62;3.50;2.03;;;25.60;32.40;;;;;;2252895;61;20359;-63
2021/08/24 07:23:37;0.00;0.00;0.62;0.00;0.00;0.62;3.80;1.73;;;25.60;32.40;;;;;;2253407;61;20587;-62
2021/08/24 07:26:23;0.00;0.00;0.62;0.00;0.00;0.62;2.70;1.50;;;25.60;32.40;;;;;;2252859;61;20449;-63
2021/08/24 07:29:08;0.00;0.00;0.62;0.00;0.00;0.62;3.57;1.70;;;25.60;32.40;;;;;;2253080;61;20371;-61
2021/08/24 07:31:53;0.00;0.00;0.62;0.00;0.00;0.62;4.70;1.80;;;25.50;32.50;;;;;;2253343;61;20788;-61
2021/08/24 07:34:38;0.00;0.00;0.62;0.00;0.00;0.62;2.90;1.80;;;25.60;32.60;;;;;;2252682;61;20368;-64
2021/08/24 07:37:22;0.00;0.00;0.62;0.00;0.00;0.62;2.90;1.53;;;25.60;32.60;;;;;;2252989;61;20403;-63
2021/08/24 07:40:10;0.00;0.00;0.62;0.00;0.00;0.62;4.20;2.30;;;25.60;32.50;;;;;;2253301;61;20367;-61
2021/08/24 07:42:56;0.00;0.00;0.62;0.00;0.00;0.62;3.20;1.90;;;25.60;32.40;;;;;;2252992;61;20743;-61
2021/08/24 07:45:41;0.00;0.00;0.62;0.00;0.00;0.62;2.70;1.63;;;25.60;32.40;;;;;;2253492;61;20363;-61
2021/08/24 07:48:27;0.00;0.00;0.62;0.00;0.00;0.62;2.67;1.70;;;25.50;32.40;;;;;;2253400;61;20387;-61
2021/08/24 07:51:12;0.00;0.00;0.62;0.00;0.00;0.62;2.37;1.77;;;25.50;32.50;;;;;;2253605;61;20651;-61
2021/08/24 07:53:56;0.00;0.00;0.62;0.00;0.00;0.62;3.00;1.60;;;25.60;32.60;;;;;;2253990;61;20375;-61
2021/08/24 07:56:41;0.00;0.00;0.62;0.00;0.00;0.62;3.43;1.90;;;25.50;32.50;;;;;;2253393;61;20359;-61
2021/08/24 07:59:27;0.00;0.00;0.62;0.00;0.00;0.62;3.40;1.63;;;25.60;32.60;;;;;;2253715;61;20364;-62
2021/08/24 08:02:15;0.00;0.00;0.62;0.00;0.00;0.62;2.40;1.60;;;25.60;32.60;;;;;;2254029;61;20438;-61
2021/08/24 08:05:00;0.00;0.00;0.62;0.00;0.00;0.62;2.77;1.70;;;25.60;32.60;;;;;;2253600;61;20591;-61
2021/08/24 08:07:45;0.00;0.00;0.62;0.00;0.00;0.62;2.37;1.60;;;25.60;32.60;;;;;;2253532;61;20600;-62
2021/08/24 08:10:30;0.00;0.00;0.62;0.00;0.00;0.62;3.87;1.40;;;25.60;32.60;;;;;;2253536;61;20391;-62
2021/08/24 08:13:15;0.00;0.00;0.62;0.00;0.00;0.62;2.37;1.30;;;25.60;32.60;;;;;;2253695;61;20364;-61
2021/08/24 08:16:01;0.00;0.00;0.62;0.00;0.00;0.62;3.60;1.47;;;25.60;32.60;;;;;;2253918;61;20414;-62
2021/08/24 08:18:45;0.00;0.00;0.62;0.00;0.00;0.62;5.27;1.53;;;25.60;32.60;;;;;;2253325;61;20419;-61
2021/08/24 08:21:32;0.00;0.00;0.62;0.00;0.00;0.62;3.00;1.50;;;25.60;32.60;;;;;;2253871;61;20363;-62
2021/08/24 08:24:17;0.00;0.00;0.62;0.00;0.00;0.62;2.33;1.43;;;25.60;32.60;;;;;;2253996;61;20719;-62
2021/08/24 08:27:01;0.00;0.00;0.62;0.00;0.00;0.62;2.47;1.80;;;25.60;32.60;;;;;;2253331;61;20431;-61
2021/08/24 08:29:46;0.00;0.00;0.62;0.00;0.00;0.62;2.10;1.40;;;25.70;32.70;;;;;;2253934;61;20367;-62
2021/08/24 08:32:32;0.00;0.00;0.62;0.00;0.00;0.62;2.70;1.10;;;25.70;32.70;;;;;;2253760;61;20582;-62
2021/08/24 08:35:18;0.00;0.00;0.62;0.00;0.00;0.62;1.80;1.27;;;25.60;32.60;;;;;;2253424;61;20464;-62
2021/08/24 08:38:03;0.00;0.00;0.62;0.00;0.00;0.62;1.90;1.30;;;25.70;32.70;;;;;;2253814;61;20459;-62
2021/08/24 08:40:55;0.00;0.00;0.62;0.00;0.00;0.62;2.27;1.13;;;25.70;32.70;;;;;;2253414;61;20399;-61
2021/08/24 08:43:45;0.00;0.00;0.62;0.00;0.00;0.62;1.97;1.03;;;25.70;32.70;;;;;;2253644;61;20400;-61
2021/08/24 08:46:42;0.00;0.00;0.62;0.00;0.00;0.62;1.80;1.30;;;25.70;32.70;;;;;;2253769;61;20360;-60
2021/08/24 08:49:34;0.00;0.00;0.62;0.00;0.00;0.62;2.13;1.23;;;25.70;32.60;;;;;;2253361;61;20388;-60
2021/08/24 08:52:28;0.00;0.00;0.62;0.00;0.00;0.62;1.77;1.37;;;25.70;32.70;;;;;;2253767;61;20484;-61
2021/08/24 08:55:27;0.00;0.00;0.62;0.00;0.00;0.62;1.83;1.40;;;25.70;32.60;;;;;;2253361;61;20410;-61
2021/08/24 08:58:31;0.00;0.00;0.62;0.00;0.00;0.62;2.13;1.00;;;25.70;32.70;;;;;;2253558;61;20387;-61
2021/08/24 09:01:22;0.00;0.00;0.62;0.00;0.00;0.62;2.20;1.10;;;25.70;32.70;;;;;;2253868;61;20352;-61
2021/08/24 09:04:16;0.00;0.00;0.62;0.00;0.00;0.62;1.70;1.17;;;25.70;32.60;;;;;;2253510;61;20367;-61
2021/08/24 09:07:09;0.00;0.00;0.62;0.00;0.00;0.62;2.10;1.33;;;25.70;32.70;;;;;;2253875;61;20744;-61
2021/08/24 09:09:55;0.00;0.00;0.62;0.00;0.00;0.62;1.60;1.20;;;25.80;32.70;;;;;;2253488;61;20625;-61
2021/08/24 09:12:39;0.00;0.00;0.62;0.00;0.00;0.62;1.60;1.10;;;25.80;32.70;;;;;;2253537;61;20652;-61
2021/08/24 09:15:38;0.00;0.00;0.62;0.00;0.00;0.62;1.70;1.10;;;25.80;32.70;;;;;;2253819;61;20362;-61
2021/08/24 09:18:38;0.00;0.00;0.62;0.00;0.00;0.62;2.27;1.13;;;25.80;32.70;;;;;;2253294;61;20622;-61
2021/08/24 09:21:28;0.00;0.00;0.62;0.00;0.00;0.62;1.70;1.10;;;25.80;32.70;;;;;;2253277;61;20608;-61
2021/08/24 09:24:17;0.00;0.00;0.62;0.00;0.00;0.62;2.50;1.10;;;25.80;32.70;;;;;;2253574;61;20356;-61
2021/08/24 09:27:06;0.00;0.00;0.62;0.00;0.00;0.62;1.50;0.90;;;25.80;32.70;;;;;;2253057;61;20387;-61
2021/08/24 09:29:52;0.00;0.00;0.62;0.00;0.00;0.62;1.53;0.90;;;25.80;32.70;;;;;;2253746;61;20403;-61
2021/08/24 09:32:37;0.00;0.00;0.62;0.00;0.00;0.62;2.80;1.47;;;25.80;32.60;;;;;;2253178;61;20817;-61
2021/08/24 09:35:30;0.00;0.00;0.62;0.00;0.00;0.62;1.87;1.00;;;25.80;32.70;;;;;;2253519;61;20379;-61
2021/08/24 09:38:18;0.00;0.00;0.62;0.00;0.00;0.62;3.73;0.90;;;25.80;32.70;;;;;;2253783;61;20453;-60
2021/08/24 09:41:20;0.00;0.00;0.62;0.00;0.00;0.62;1.93;1.40;;;25.90;32.80;;;;;;2253265;61;20391;-62
2021/08/24 09:44:24;0.00;0.00;0.62;0.00;0.00;0.62;2.10;1.23;;;25.90;32.90;;;;;;2253574;61;20358;-61
2021/08/24 09:47:17;0.00;0.00;0.62;0.00;0.00;0.62;1.70;0.90;;;25.90;33.00;;;;;;2253091;61;20668;-62
2021/08/24 09:50:13;0.00;0.00;0.62;0.00;0.00;0.62;2.93;1.23;;;25.90;33.10;;;;;;2253310;61;20363;-62
2021/08/24 09:53:00;0.00;0.00;0.62;0.00;0.00;0.62;1.80;1.10;;;25.90;33.20;;;;;;2253805;61;20724;-64
2021/08/24 09:55:48;0.00;0.00;0.62;0.00;0.00;0.62;1.57;1.13;;;26.00;33.20;;;;;;2253264;61;20635;-64
2021/08/24 09:58:39;0.00;0.00;0.62;0.00;0.00;0.62;1.93;1.20;;;26.00;33.20;;;;;;2253615;61;20420;-63
2021/08/24 10:01:23;0.00;0.00;0.62;0.00;0.00;0.62;2.20;1.20;;;26.00;33.10;;;;;;2253431;61;20723;-65
2021/08/24 10:04:09;0.00;0.00;0.62;0.00;0.00;0.62;1.70;1.10;;;26.00;32.90;;;;;;2253160;61;20380;-64
2021/08/24 10:07:00;0.00;0.00;0.62;0.00;0.00;0.62;1.60;1.10;;;26.00;32.80;;;;;;2253693;61;20578;-62
2021/08/24 10:09:57;0.00;0.00;0.62;0.00;0.00;0.62;1.67;1.10;;;26.00;32.60;;;;;;2253049;61;20352;-61
2021/08/24 10:12:41;0.00;0.00;0.62;0.00;0.00;0.62;2.03;1.17;;;26.00;32.30;;;;;;2253348;61;20368;-63
2021/08/24 10:15:32;0.00;0.00;0.62;0.00;0.00;0.62;1.50;1.07;;;26.00;32.40;;;;;;2253773;61;20404;-62
2021/08/24 10:18:25;0.00;0.00;0.62;0.00;0.00;0.62;1.60;1.10;;;26.00;32.30;;;;;;2253045;61;20434;-61
2021/08/24 10:21:14;0.00;0.00;0.62;0.00;0.00;0.62;2.77;1.07;;;26.10;32.50;;;;;;2253699;61;20577;-61
2021/08/24 10:24:01;0.00;0.00;0.62;0.00;0.00;0.62;2.63;1.13;;;26.10;32.50;;;;;;2253109;61;20400;-61
2021/08/24 10:26:53;0.00;0.00;0.62;0.00;0.00;0.62;1.50;1.00;;;26.10;32.60;;;;;;2253276;61;20781;-64
2021/08/24 10:29:39;0.00;0.00;0.62;0.00;0.00;0.62;1.40;0.90;;;26.10;32.60;;;;;;2253521;61;20395;-61
2021/08/24 10:32:32;0.00;0.00;0.62;0.00;0.00;0.62;1.30;0.80;;;26.10;33.30;;;;;;2253059;61;20420;-60
2021/08/24 10:35:30;0.00;0.00;0.62;0.00;0.00;0.62;1.40;1.00;;;26.10;32.60;;;;;;2253417;61;20435;-61
2021/08/24 10:38:17;0.00;0.00;0.62;0.00;0.00;0.62;1.87;1.10;;;26.20;32.70;;;;;;2253177;61;20685;-60
2021/08/24 10:41:02;0.00;0.00;0.62;0.00;0.00;0.62;1.50;1.00;;;26.20;32.70;;;;;;2253143;61;20723;-60
2021/08/24 10:43:56;0.00;0.00;0.62;0.00;0.00;0.62;1.70;0.97;;;26.20;32.70;;;;;;2253685;61;20363;-61
2021/08/24 10:46:51;0.00;0.00;0.62;0.00;0.00;0.62;1.60;0.93;;;26.20;32.70;;;;;;2253267;61;20375;-63
2021/08/24 10:49:37;0.00;0.00;0.62;0.00;0.00;0.62;3.73;1.00;;;26.30;32.70;;;;;;2253405;61;20653;-63
2021/08/24 10:52:43;0.00;0.00;0.62;0.00;0.00;0.62;1.43;1.00;;;26.20;32.70;;;;;;2252969;61;20503;-64
2021/08/24 10:55:32;0.00;0.00;0.62;0.00;0.00;0.62;2.57;1.00;;;26.30;32.70;;;;;;2253162;61;20424;-62
2021/08/24 10:58:23;0.00;0.00;0.62;0.00;0.00;0.62;1.60;1.17;;;26.30;32.70;;;;;;2253686;61;20392;-62
2021/08/24 11:01:18;0.00;0.00;0.62;0.00;0.00;0.62;2.03;1.10;;;26.30;32.70;;;;;;2253043;61;20363;-63